KMPZ/MPZ METAR and TAF weather

Enter ICAO airport designator
Station Type Date Time Source
KMPZ METAR 2019/04/25 15:35 UTC NOAA

KMPZ 251535Z AUTO 28003KT 4SM BR OVC002 14/14 A2980 RMK AO2


Station Type Date Time Source
KMPZ Decoded METAR 2019/04/25 15:35 UTC NOAA

Mount Pleasant, Mount Pleasant Municipal Airport, IA, United States (KMPZ) 40-56-48N 091-30-40W
Apr 25, 2019 - 11:35 AM EDT / 2019.04.25 1535 UTC
Wind: from the W (280 degrees) at 3 MPH (3 KT):0
Visibility: 4 mile(s):0
Sky conditions: overcast
Weather: mist
Temperature: 57 F (14 C)
Dew Point: 57 F (14 C)
Relative Humidity: 100%
Pressure (altimeter): 29.8 in. Hg (1009 hPa)
ob: KMPZ 251535Z AUTO 28003KT 4SM BR OVC002 14/14 A2980 RMK AO2
cycle: 15

Station Type Date Time Source
KMPZ TAF UTC NOAA

Error!

Example: see airport list